Flight Track Log - Related Links

Times and Time Zones

All times are in EDT time to prevent confusion due to time zone crossing. See the LXJ541 flight status page for this flight to view local times or setup timezone preferences in your user account.

Time Position Orientation Groundspeed Altitude Reporting Facility
EDT Latitude Longitude Course Direction KTS MPH feet Rate Location/Type
Sat 09:08:36 AM 28.2667 -81.4333 240° Southwest 165 190 800  Level Orlando TRACON
Sat 09:09:24 AM 28.2500 -81.4667 240° Southwest 246 283 2,900 1,778 Climbing Orlando TRACON
Sat 09:10:24 AM 28.2667 -81.5333 286° West 287 330 4,000 600 Climbing Orlando TRACON
Sat 09:11:24 AM 28.3500 -81.5667 341° North 282 325 4,100 1,333 Climbing Orlando TRACON
Sat 09:12:12 AM 28.4000 -81.5833 344° North 288 331 6,400 3,051 Climbing Orlando TRACON
Sat 09:14:21 AM 28.5939 -81.5756 North 310 357 13,100 2,984 Climbing Jacksonville Center
Sat 09:15:21 AM 28.6961 -81.5625 North 346 398 15,800 2,600 Climbing Jacksonville Center
Sat 09:16:21 AM 28.8067 -81.5586 North 370 426 18,300 2,550 Climbing Jacksonville Center
Sat 09:17:21 AM 28.9153 -81.5594 360° North 382 440 20,900 2,500 Climbing Jacksonville Center
Sat 09:18:21 AM 29.0319 -81.5508 North 393 452 23,300 2,200 Climbing Jacksonville Center
Sat 09:19:21 AM 29.1447 -81.5542 359° North 404 465 25,300 1,700 Climbing Jacksonville Center
Sat 09:20:21 AM 29.2511 -81.5503 North 404 465 26,700 1,400 Climbing Jacksonville Center
Sat 09:21:21 AM 29.3742 -81.5461 North 418 481 28,100 1,400 Climbing Jacksonville Center
Sat 09:22:21 AM 29.5058 -81.5419 North 446 513 29,500 1,250 Climbing Jacksonville Center
Sat 09:23:21 AM 29.6372 -81.5353 North 458 527 30,600 1,100 Climbing Jacksonville Center
Sat 09:24:21 AM 29.7728 -81.5311 North 474 545 31,700 1,100 Climbing Jacksonville Center
Sat 09:25:21 AM 29.9106 -81.5244 North 479 551 32,800 1,200 Climbing Jacksonville Center
Sat 09:26:21 AM 30.0483 -81.5200 North 484 557 34,100 1,300 Climbing Jacksonville Center
Sat 09:27:21 AM 30.1861 -81.5133 North 490 564 35,400 1,450 Climbing Jacksonville Center
Sat 09:28:21 AM 30.3425 -81.5086 North 500 575 37,000 1,550 Climbing Jacksonville Center
Sat 09:29:21 AM 30.4822 -81.4969 North 500 575 38,500 1,500 Climbing Jacksonville Center
Sat 09:30:21 AM 30.6158 -81.4878 North 495 570 40,000 1,250 Climbing Jacksonville Center
Sat 09:31:21 AM 30.7514 -81.4761 North 490 564 41,000 500 Climbing Jacksonville Center
Sat 09:32:21 AM 30.8850 -81.4667 North 485 558 41,000  Level Jacksonville Center
Sat 09:33:21 AM 31.0225 -81.4575 North 485 558 41,000  Level Jacksonville Center
Sat 09:34:21 AM 31.1603 -81.4431 North 485 558 41,000  Level Jacksonville Center
Sat 09:35:21 AM 31.2933 -81.3997 16° North 487 560 41,000  Level Jacksonville Center
Sat 09:36:21 AM 31.4111 -81.3056 34° Northeast 498 573 41,000  Level Jacksonville Center
Sat 09:37:21 AM 31.5289 -81.2058 36° Northeast 522 601 41,000  Level Jacksonville Center
Sat 09:38:21 AM 31.6467 -81.1036 36° Northeast 517 595 41,000  Level Jacksonville Center
Sat 09:39:21 AM 31.7664 -81.0061 35° Northeast 517 595 41,000  Level Jacksonville Center
Sat 09:40:21 AM 31.8733 -80.9158 36° Northeast 517 595 41,000  Level Jacksonville Center
Sat 09:41:21 AM 32.0053 -80.8053 35° Northeast 517 595 41,000  Level Jacksonville Center
Sat 09:42:21 AM 32.1206 -80.7094 35° Northeast 517 595 41,000  Level Jacksonville Center
Sat 09:43:21 AM 32.2397 -80.6058 36° Northeast 517 595 41,000  Level Jacksonville Center
Sat 09:44:21 AM 32.3569 -80.5047 36° Northeast 517 595 41,000  Level Jacksonville Center
Sat 09:45:21 AM 32.4761 -80.4006 36° Northeast 523 602 41,000  Level Jacksonville Center
Sat 09:46:21 AM 32.5931 -80.2986 36° Northeast 518 596 41,000  Level Jacksonville Center
Sat 09:47:21 AM 32.7119 -80.1939 37° Northeast 518 596 41,000  Level Jacksonville Center
Sat 09:48:21 AM 32.8306 -80.0892 37° Northeast 518 596 41,000  Level Jacksonville Center
Sat 09:49:21 AM 32.9492 -79.9814 37° Northeast 523 602 41,000  Level Jacksonville Center
Sat 09:50:21 AM 33.0656 -79.8711 38° Northeast 528 608 41,000  Level Jacksonville Center
Sat 09:51:21 AM 33.1697 -79.7708 39° Northeast 533 613 41,000  Level Jacksonville Center
Sat 09:52:21 AM 33.2858 -79.6600 39° Northeast 533 613 41,000  Level Jacksonville Center
Sat 09:53:21 AM 33.3978 -79.5489 40° Northeast 528 608 41,000  Level Jacksonville Center
Sat 09:54:21 AM 33.5136 -79.4350 39° Northeast 533 613 41,000  Level Jacksonville Center
Sat 09:55:21 AM 33.6275 -79.3258 39° Northeast 533 613 41,000  Level Jacksonville Center
Sat 09:56:21 AM 33.7328 -79.2192 40° Northeast 528 608 41,000  Level Jacksonville Center
Sat 09:57:21 AM 33.8425 -79.1119 39° Northeast 512 589 41,000  Level Jacksonville Center
Sat 09:58:21 AM 33.9581 -79.0019 38° Northeast 512 589 41,000  Level Jacksonville Center
Sat 09:59:21 AM 34.0711 -78.8889 40° Northeast 517 595 41,000  Level Jacksonville Center
Sat 10:01:10 AM 34.2822 -78.6783 39° Northeast 510 587 41,000  Level Washington Center
Sat 10:02:11 AM 34.3958 -78.5644 40° Northeast 510 587 41,000  Level Washington Center
Sat 10:03:08 AM 34.5069 -78.4525 40° Northeast 515 593 41,000  Level Washington Center
Sat 10:04:10 AM 34.6203 -78.3378 40° Northeast 515 593 41,000  Level Washington Center
Sat 10:05:10 AM 34.7333 -78.2228 40° Northeast 515 593 41,000  Level Washington Center
Sat 10:06:11 AM 34.8297 -78.1147 43° Northeast 515 593 41,000  Level Washington Center
Sat 10:07:10 AM 34.9425 -77.9992 40° Northeast 520 598 41,000  Level Washington Center
Sat 10:08:10 AM 35.0511 -77.8881 40° Northeast 520 598 41,000  Level Washington Center
Sat 10:09:11 AM 35.1639 -77.7719 40° Northeast 515 593 41,000  Level Washington Center
Sat 10:10:11 AM 35.2744 -77.6578 40° Northeast 515 593 41,000  Level Washington Center
Sat 10:11:08 AM 35.3847 -77.5436 40° Northeast 515 593 41,000  Level Washington Center
Sat 10:12:09 AM 35.5033 -77.4392 36° Northeast 515 593 41,000  Level Washington Center
Sat 10:13:10 AM 35.6239 -77.3372 34° Northeast 515 593 41,000  Level Washington Center
Sat 10:14:11 AM 35.7381 -77.2347 36° Northeast 515 593 41,000  Level Washington Center
Sat 10:15:11 AM 35.8647 -77.1222 36° Northeast 515 593 41,000 -50 Level Washington Center
Sat 10:16:10 AM 35.9806 -77.0167 36° Northeast 515 593 40,900 350 Descending Washington Center
Sat 10:17:11 AM 36.1008 -76.9133 35° Northeast 515 593 41,700 843 Climbing Washington Center
Sat 10:18:11 AM 36.2167 -76.8122 35° Northeast 515 593 42,600 661 Climbing Washington Center
Sat 10:19:09 AM 36.3303 -76.7083 36° Northeast 509 586 43,000 203 Climbing Washington Center
Sat 10:20:09 AM 36.4481 -76.6042 35° Northeast 509 586 43,000  Level Washington Center
Sat 10:21:10 AM 36.5636 -76.5022 35° Northeast 509 586 43,000  Level Washington Center
Sat 10:22:10 AM 36.6792 -76.3975 36° Northeast 509 586 43,000  Level Washington Center
Sat 10:23:11 AM 36.7842 -76.2972 37° Northeast 515 593 43,000  Level Washington Center
Sat 10:24:09 AM 36.8994 -76.1969 35° Northeast 510 587 43,000  Level Washington Center
Sat 10:25:09 AM 37.0542 -76.1228 21° North 510 587 43,000  Level Washington Center
Sat 10:26:11 AM 37.1817 -76.0533 23° Northeast 510 587 43,000  Level Washington Center
Sat 10:27:09 AM 37.3111 -75.9836 23° Northeast 505 581 43,000  Level Washington Center
Sat 10:28:09 AM 37.4447 -75.9108 23° Northeast 505 581 43,000  Level Washington Center
Sat 10:29:11 AM 37.5722 -75.8328 26° Northeast 505 581 43,000 -49 Level Washington Center
Sat 10:30:11 AM 37.6725 -75.7597 30° Northeast 505 581 42,900  Descending Washington Center
Sat 10:31:08 AM 37.8081 -75.6600 30° Northeast 505 581 43,000 50 Climbing Washington Center
Sat 10:32:10 AM 37.9311 -75.5656 31° Northeast 511 588 43,000  Level Washington Center
Sat 10:33:08 AM 38.0564 -75.4678 32° Northeast 511 588 43,000  Level Washington Center
Sat 10:34:09 AM 38.1708 -75.3514 39° Northeast 523 602 43,000  Level Washington Center
Sat 10:35:09 AM 38.2872 -75.2347 38° Northeast 523 602 43,000  Level Washington Center
Sat 10:36:10 AM 38.3972 -75.1122 41° Northeast 528 608 43,000  Level Washington Center
Sat 10:37:11 AM 38.5114 -74.9894 40° Northeast 528 608 43,000  Level Washington Center
Sat 10:38:09 AM 38.6233 -74.8717 39° Northeast 528 608 43,000  Level Washington Center
Sat 10:39:10 AM 38.7353 -74.7506 40° Northeast 528 608 43,000 -50 Level Washington Center
Sat 10:40:10 AM 38.8489 -74.6294 40° Northeast 528 608 42,900  Descending Washington Center
Sat 10:41:08 AM 38.9625 -74.5106 39° Northeast 523 602 43,000 50 Climbing Washington Center
Sat 10:42:09 AM 39.0739 -74.3858 41° Northeast 523 602 43,000  Level Washington Center
Sat 10:43:09 AM 39.1831 -74.2689 40° Northeast 518 596 43,000  Level Washington Center
Sat 10:44:10 AM 39.2922 -74.1461 41° Northeast 524 603 43,000  Level Washington Center
Sat 10:46:23 AM 39.5450 -73.8683 40° Northeast 530 610 43,000  Level Boston Center
Sat 10:47:23 AM 39.6469 -73.7036 51° Northeast 524 603 43,000  Level Boston Center
Sat 10:48:23 AM 39.7381 -73.5517 52° Northeast 524 603 43,000  Level Boston Center
Sat 10:49:23 AM 39.8247 -73.4044 53° Northeast 524 603 43,000  Level Boston Center
Sat 10:50:23 AM 39.9072 -73.2758 50° Northeast 519 597 43,000 -350 Level Boston Center
Sat 10:51:23 AM 39.9936 -73.1253 53° Northeast 519 597 42,300 -1,600 Descending Boston Center
Sat 10:52:23 AM 40.0756 -72.9769 54° Northeast 514 592 39,800 -2,000 Descending Boston Center
Sat 10:53:23 AM 40.1658 -72.8231 52° Northeast 514 592 38,300 -1,250 Descending Boston Center
Sat 10:54:23 AM 40.2642 -72.6467 54° Northeast 533 613 37,300 -650 Descending Boston Center
Sat 10:55:23 AM 40.3581 -72.4892 52° Northeast 540 621 37,000 -1,000 Descending Boston Center
Sat 10:56:23 AM 40.4478 -72.3283 54° Northeast 545 627 35,300 -2,550 Descending Boston Center
Sat 10:57:23 AM 40.5350 -72.1669 55° Northeast 545 627 31,900 -3,200 Descending Boston Center
Sat 10:58:23 AM 40.6242 -72.0136 53° Northeast 539 620 28,900 -3,000 Descending Boston Center
Sat 10:59:23 AM 40.7089 -71.8597 54° Northeast 528 608 25,900 -2,750 Descending Boston Center
Sat 11:00:23 AM 40.7894 -71.7356 49° Northeast 507 583 23,400 -2,600 Descending Boston Center
Sat 11:01:23 AM 40.8633 -71.5947 55° Northeast 492 566 20,700 -2,500 Descending Boston Center
Sat 11:02:23 AM 40.9331 -71.4511 57° Northeast 469 540 18,400 -2,662 Descending Boston Center
Sat 11:03:36 AM 41.0314 -71.2844 52° Northeast 436 502 14,800 -2,750 Descending Boston Center
Sat 11:04:23 AM 41.0764 -71.2011 54° Northeast 418 481 12,900 -2,243 Descending Boston Center
Sat 11:05:23 AM 41.1294 -71.0981 56° Northeast 418 481 10,800 -1,800 Descending Boston Center
Sat 11:06:23 AM 41.1944 -70.9669 57° Northeast 372 428 9,300 -900 Descending Boston Center
Sat 11:07:23 AM 41.2325 -70.8531 66° East 340 391 9,000 -750 Descending Boston Center
Sat 11:08:23 AM 41.2622 -70.7336 72° East 335 386 7,800 -1,250 Descending Boston Center
Sat 11:09:23 AM 41.2997 -70.6083 68° East 335 386 6,500 -1,350 Descending Boston Center
Sat 11:10:23 AM 41.3400 -70.5186 59° Northeast 317 365 5,100 -750 Descending Boston Center
Sat 11:11:23 AM 41.3844 -70.4453 51° Northeast 293 337 5,000 -550 Descending Boston Center
Sat 11:12:23 AM 41.4253 -70.3914 45° Northeast 239 275 4,000 -1,000 Descending Boston Center
Sat 11:13:23 AM 41.4631 -70.4150 335° Northwest 161 185 3,000 -500 Descending Boston Center
Sat 11:14:23 AM 41.4931 -70.4503 319° Northwest 128 147 3,000 -700 Level Boston Center
Sat 11:15:23 AM 41.4836 -70.5086 258° West 120 138 1,600 -750 Descending Boston Center
Sat 11:16:23 AM 41.4531 -70.5483 224° Southwest 125 144 1,500 -400 Descending Boston Center
Sat 11:17:23 AM 41.4242 -70.5769 217° Southwest 140 161 800 -450 Descending Boston Center
Sat 11:18:23 AM 41.3956 -70.6136 224° Southwest 140 161 600 4,100 Descending Boston Center
Sat 11:19:23 AM 41.3650 -70.6478 220° Southwest 140 161 9,000 4,200 Climbing Boston Center
Sat 11:20:23 AM 41.3342 -70.6847 222° Southwest 140 161 9,000  Level Boston Center

Login

Don't have an account? Register now (free) for customized features, flight alerts, and more!